Time;durP1;ratioP1;P1;durP2;ratioP2;P2;SDS_P1;SDS_P2;PMS_P1;PMS_P2;Temp;Humidity;BMP_temperature;BMP_pressure;BME280_temperature;BME280_humidity;BME280_pressure;Samples;Min_cycle;Max_cycle;Signal;HPM_P1;HPM_P2
2023/01/24 00:00:29;;;;;;;54.03;26.83;;;0.90;99.90;;;;;;4161353;28;20689;-61
2023/01/24 00:02:30;;;;;;;55.07;27.80;;;0.90;99.90;;;;;;4161814;28;20324;-70
2023/01/24 00:04:32;;;;;;;57.63;27.03;;;0.90;99.90;;;;;;4161441;28;20278;-62
2023/01/24 00:06:33;;;;;;;54.37;26.03;;;0.90;99.90;;;;;;4160862;28;20678;-60
2023/01/24 00:08:34;;;;;;;57.17;25.73;;;0.90;99.90;;;;;;4160864;28;20742;-61
2023/01/24 00:10:36;;;;;;;52.07;23.93;;;0.80;99.90;;;;;;4160259;28;20267;-60
2023/01/24 00:12:37;;;;;;;48.13;23.33;;;0.80;99.90;;;;;;4162139;28;20800;-71
2023/01/24 00:14:38;;;;;;;53.60;23.17;;;0.80;99.90;;;;;;4161183;28;20275;-72
2023/01/24 00:16:39;;;;;;;45.67;22.30;;;0.90;99.90;;;;;;4161899;28;20340;-61
2023/01/24 00:18:41;;;;;;;49.50;21.67;;;0.80;99.90;;;;;;4161244;28;20344;-67
2023/01/24 00:20:42;;;;;;;42.23;22.27;;;0.90;99.90;;;;;;4161881;28;20721;-61
2023/01/24 00:22:43;;;;;;;45.03;21.37;;;0.90;99.90;;;;;;4159832;28;21481;-61
2023/01/24 00:24:45;;;;;;;43.63;20.57;;;0.90;99.90;;;;;;4161972;28;20317;-61
2023/01/24 00:26:46;;;;;;;44.43;21.47;;;0.90;99.90;;;;;;4160512;28;20287;-63
2023/01/24 00:28:49;;;;;;;47.83;23.23;;;0.90;99.90;;;;;;4161153;28;20274;-61
2023/01/24 00:30:50;;;;;;;41.17;22.20;;;0.90;99.90;;;;;;4160958;28;20322;-61
2023/01/24 00:32:51;;;;;;;49.03;24.13;;;0.90;99.90;;;;;;4161565;28;20275;-75
2023/01/24 00:34:52;;;;;;;42.57;20.80;;;0.80;99.90;;;;;;4161125;28;20353;-61
2023/01/24 00:36:53;;;;;;;46.90;22.33;;;0.80;99.90;;;;;;4161393;28;20689;-62
2023/01/24 00:38:54;;;;;;;47.50;21.90;;;0.90;99.90;;;;;;4161650;28;20254;-66
2023/01/24 00:40:56;;;;;;;42.13;20.93;;;0.80;99.90;;;;;;4160989;28;20285;-62
2023/01/24 00:42:57;;;;;;;37.33;19.67;;;0.80;99.90;;;;;;4145524;28;20660;-61
2023/01/24 00:44:58;;;;;;;43.97;20.70;;;0.90;99.90;;;;;;4144402;28;20341;-70
2023/01/24 00:46:59;;;;;;;42.27;21.43;;;0.80;99.90;;;;;;4160526;28;20282;-62
2023/01/24 00:49:00;;;;;;;37.63;18.10;;;0.90;99.90;;;;;;4161608;28;20779;-72
2023/01/24 00:51:01;;;;;;;35.03;18.30;;;0.80;99.90;;;;;;4161413;28;20340;-62
2023/01/24 00:53:04;;;;;;;39.83;18.67;;;0.80;99.90;;;;;;4160597;28;20333;-72
2023/01/24 00:55:05;;;;;;;35.07;18.13;;;0.80;99.90;;;;;;4160805;28;20407;-69
2023/01/24 00:57:07;;;;;;;34.77;18.77;;;0.80;99.90;;;;;;4160380;28;20294;-63
2023/01/24 00:59:08;;;;;;;32.20;16.70;;;0.80;99.90;;;;;;4161696;28;20279;-61
2023/01/24 01:01:09;;;;;;;37.90;16.77;;;0.80;99.90;;;;;;4159802;28;20832;-61
2023/01/24 01:03:14;;;;;;;31.83;16.90;;;0.80;99.90;;;;;;4160503;28;20266;-58
2023/01/24 01:05:16;;;;;;;27.93;13.47;;;0.80;99.90;;;;;;4145022;28;20259;-60
2023/01/24 01:07:20;;;;;;;27.30;14.30;;;0.80;99.90;;;;;;4159790;28;20341;-62
2023/01/24 01:09:21;;;;;;;30.70;13.07;;;0.70;99.90;;;;;;4163533;28;20274;-61
2023/01/24 01:11:22;;;;;;;23.47;12.63;;;0.70;99.90;;;;;;4163284;28;20396;-60
2023/01/24 01:13:24;;;;;;;24.77;12.33;;;0.70;99.90;;;;;;4163993;28;20259;-60
2023/01/24 01:15:25;;;;;;;26.40;14.00;;;0.70;99.90;;;;;;4163723;28;20770;-60
2023/01/24 01:17:26;;;;;;;27.57;13.80;;;0.70;99.90;;;;;;4164630;28;20302;-60
2023/01/24 01:19:28;;;;;;;25.13;13.20;;;0.70;99.90;;;;;;4163302;28;20686;-60
2023/01/24 01:21:29;;;;;;;27.00;14.47;;;0.70;99.90;;;;;;4164839;28;20321;-59
2023/01/24 01:23:30;;;;;;;31.53;13.43;;;0.70;99.90;;;;;;4163115;28;20286;-61
2023/01/24 01:25:32;;;;;;;30.20;14.63;;;0.70;99.90;;;;;;4164339;28;20283;-60
2023/01/24 01:27:33;;;;;;;32.47;14.57;;;0.60;99.90;;;;;;4163492;28;20313;-61
2023/01/24 01:29:34;;;;;;;31.33;15.03;;;0.60;99.90;;;;;;4164578;28;20731;-60
2023/01/24 01:31:36;;;;;;;32.43;14.27;;;0.60;99.90;;;;;;4163543;28;20824;-61
2023/01/24 01:33:38;;;;;;;30.90;16.07;;;0.50;99.90;;;;;;4164897;28;20267;-63
2023/01/24 01:35:39;;;;;;;28.37;14.03;;;0.50;99.90;;;;;;4163705;28;20263;-62
2023/01/24 01:37:40;;;;;;;29.60;13.67;;;0.50;99.90;;;;;;4163928;28;20298;-62
2023/01/24 01:39:41;;;;;;;28.47;14.20;;;0.50;99.90;;;;;;4163787;28;20263;-61
2023/01/24 01:41:42;;;;;;;32.63;14.57;;;0.50;99.90;;;;;;4163935;28;20651;-60
2023/01/24 01:46:40;;;;;;;31.17;14.23;;;0.40;99.90;;;;;;4164373;28;20352;-61
2023/01/24 01:48:45;;;;;;;30.17;14.47;;;0.40;99.90;;;;;;4155750;28;20029;-61
2023/01/24 01:50:55;;;;;;;45.50;17.53;;;0.40;99.90;;;;;;4163787;28;20270;-61
2023/01/24 01:52:57;;;;;;;32.93;16.83;;;0.30;99.90;;;;;;4163423;28;20804;-70
2023/01/24 01:55:03;;;;;;;30.60;15.73;;;0.30;99.90;;;;;;4163774;28;20279;-64
2023/01/24 01:57:09;;;;;;;36.43;17.23;;;0.20;99.90;;;;;;4163148;28;20290;-61
2023/01/24 01:59:15;;;;;;;32.27;16.63;;;0.20;99.90;;;;;;4163349;28;20283;-62
2023/01/24 02:01:16;;;;;;;24.53;13.00;;;0.20;99.90;;;;;;4163425;28;20810;-60
2023/01/24 02:03:37;;;;;;;29.00;14.30;;;0.20;99.90;;;;;;4163169;28;20282;-62
2023/01/24 02:05:38;;;;;;;;;;;0.20;99.90;;;;;;4147891;28;20325;-61
2023/01/24 02:07:43;;;;;;;;;;;0.20;99.90;;;;;;4156990;28;20043;-61
2023/01/24 02:09:48;;;;;;;36.67;16.90;;;0.20;99.90;;;;;;4162847;28;19953;-60
2023/01/24 02:11:53;;;;;;;46.97;21.43;;;0.20;99.90;;;;;;4161919;28;20275;-61
2023/01/24 02:16:02;;;;;;;32.40;16.83;;;0.20;99.90;;;;;;4162585;28;20317;-60
2023/01/24 02:16:16;;;;;;;34.33;18.03;;;0.10;99.90;;;;;;4162926;28;20340;-61
2023/01/24 02:18:17;;;;;;;36.73;18.40;;;0.10;99.90;;;;;;4163528;28;20286;-60
2023/01/24 02:20:41;;;;;;;43.73;20.87;;;0.10;99.90;;;;;;4161842;28;20274;-61
2023/01/24 02:22:53;;;;;;;42.47;20.93;;;0.10;99.90;;;;;;4152757;28;20407;-61
2023/01/24 02:25:22;;;;;;;38.00;19.83;;;0.10;99.90;;;;;;4162170;28;20689;-63
2023/01/24 02:27:23;;;;;;;38.80;19.40;;;0.10;99.90;;;;;;4143739;28;20328;-68
2023/01/24 02:29:24;;;;;;;41.47;19.30;;;0.10;99.90;;;;;;4163265;28;20420;-60
2023/01/24 02:31:26;;;;;;;41.73;19.03;;;0.20;99.90;;;;;;4162789;28;20278;-61
2023/01/24 02:33:27;;;;;;;39.93;19.07;;;0.10;99.90;;;;;;4163007;28;20336;-60
2023/01/24 02:35:31;;;;;;;33.67;16.20;;;0.10;99.90;;;;;;4162738;28;20332;-60
2023/01/24 02:37:36;;;;;;;35.57;17.87;;;0.10;99.90;;;;;;4162456;28;20344;-61
2023/01/24 02:39:50;;;;;;;36.10;17.50;;;0.20;99.90;;;;;;4162502;28;20345;-60
2023/01/24 02:41:56;;;;;;;32.10;14.90;;;0.10;99.90;;;;;;4162606;28;20340;-61
2023/01/24 02:44:02;;;;;;;31.70;16.87;;;0.10;99.90;;;;;;4163527;28;20275;-61
2023/01/24 02:46:04;;;;;;;27.60;14.80;;;0.10;99.90;;;;;;4161702;28;20643;-60
2023/01/24 02:48:05;;;;;;;31.83;15.40;;;0.00;99.90;;;;;;4163063;28;20317;-60
2023/01/24 02:50:08;;;;;;;29.93;14.93;;;0.00;99.90;;;;;;4161254;28;20287;-69
2023/01/24 02:54:29;;;;;;;32.63;15.40;;;0.00;99.90;;;;;;4162333;28;20395;-71
2023/01/24 02:58:54;;;;;;;30.23;14.73;;;0.00;99.90;;;;;;4142671;28;20275;-70
2023/01/24 03:00:55;;;;;;;32.60;15.93;;;0.00;99.90;;;;;;4163147;28;20727;-70
2023/01/24 03:02:57;;;;;;;28.03;15.23;;;0.00;99.90;;;;;;4161025;28;20255;-61
2023/01/24 03:04:58;;;;;;;31.13;14.60;;;0.00;99.90;;;;;;4163589;28;20263;-66
2023/01/24 03:06:59;;;;;;;37.27;16.53;;;0.00;99.90;;;;;;4162323;28;20304;-67
2023/01/24 03:09:14;;;;;;;33.23;16.40;;;0.00;99.90;;;;;;4163032;28;20282;-60
2023/01/24 03:11:15;;;;;;;35.40;18.07;;;0.00;99.90;;;;;;4162201;28;20270;-60
2023/01/24 03:34:31;;;;;;;36.03;17.13;;;-0.30;99.90;;;;;;4161968;28;20332;-74
2023/01/24 03:36:32;;;;;;;34.37;17.40;;;-0.30;99.90;;;;;;4162156;28;20270;-68
2023/01/24 03:40:53;;;;;;;35.97;16.70;;;-0.40;99.90;;;;;;4162010;28;20324;-60
2023/01/24 03:42:54;;;;;;;38.03;17.87;;;-0.40;99.90;;;;;;4161857;28;20278;-67
2023/01/24 03:44:55;;;;;;;29.30;15.13;;;-0.40;99.90;;;;;;4161906;28;20337;-59
2023/01/24 03:46:57;;;;;;;36.80;17.10;;;-0.40;99.90;;;;;;4161811;28;20313;-74
2023/01/24 03:48:58;;;;;;;33.60;16.60;;;-0.40;99.90;;;;;;4161559;28;20778;-60
2023/01/24 03:53:21;;;;;;;33.10;16.83;;;-0.40;99.90;;;;;;4161766;28;20333;-60
2023/01/24 03:55:22;;;;;;;37.53;18.10;;;-0.40;99.90;;;;;;4157722;28;20274;-67
2023/01/24 03:57:23;;;;;;;34.43;18.03;;;-0.50;99.90;;;;;;4162064;28;20779;-61
2023/01/24 03:59:25;;;;;;;35.10;16.17;;;-0.40;99.90;;;;;;4160974;28;20287;-65
2023/01/24 04:01:26;;;;;;;29.00;16.27;;;-0.50;99.90;;;;;;4161878;28;20317;-62
2023/01/24 04:03:27;;;;;;;31.70;17.03;;;-0.50;99.90;;;;;;4161200;28;20751;-60
2023/01/24 04:05:28;;;;;;;35.57;16.63;;;-0.50;99.90;;;;;;4162356;28;20742;-60
2023/01/24 04:07:30;;;;;;;35.93;16.40;;;-0.50;99.90;;;;;;4160970;28;20360;-60
2023/01/24 04:09:31;;;;;;;31.50;16.07;;;-0.50;99.90;;;;;;4161333;28;20305;-60
2023/01/24 04:11:33;;;;;;;32.10;16.30;;;-0.50;99.90;;;;;;4160923;28;20348;-61
2023/01/24 04:13:34;;;;;;;35.27;16.50;;;-0.50;99.90;;;;;;4161465;28;20271;-59
2023/01/24 04:15:35;;;;;;;35.17;16.43;;;-0.60;99.90;;;;;;4161054;28;20271;-61
2023/01/24 04:17:36;;;;;;;30.93;16.37;;;-0.60;99.90;;;;;;4160524;28;20302;-61
2023/01/24 04:19:37;;;;;;;32.90;17.27;;;-0.60;99.90;;;;;;4160782;28;20324;-61
2023/01/24 04:21:38;;;;;;;33.97;16.20;;;-0.60;99.90;;;;;;4158749;28;20274;-73
2023/01/24 04:23:40;;;;;;;30.03;15.33;;;-0.60;99.90;;;;;;4161608;28;20674;-60
2023/01/24 04:25:41;;;;;;;33.77;16.03;;;-0.60;99.90;;;;;;4160683;28;20279;-61
2023/01/24 04:27:42;;;;;;;32.83;17.10;;;-0.60;99.90;;;;;;4160988;28;20271;-61
2023/01/24 04:29:43;;;;;;;26.30;14.27;;;-0.60;99.90;;;;;;4160962;28;20267;-59
2023/01/24 04:31:44;;;;;;;26.07;13.03;;;-0.60;99.90;;;;;;4161758;28;20279;-60
2023/01/24 04:33:46;;;;;;;25.17;13.10;;;-0.60;99.90;;;;;;4160613;28;21020;-60
2023/01/24 04:35:47;;;;;;;25.20;12.47;;;-0.60;99.90;;;;;;4162123;28;20275;-60
2023/01/24 04:37:49;;;;;;;26.60;11.80;;;-0.60;99.90;;;;;;4159227;28;20703;-60
2023/01/24 04:39:50;;;;;;;24.67;11.90;;;-0.60;99.90;;;;;;4161748;28;20324;-60
2023/01/24 04:41:51;;;;;;;27.87;13.00;;;-0.60;99.90;;;;;;4160791;28;20321;-61
2023/01/24 04:43:52;;;;;;;30.17;14.40;;;-0.60;99.90;;;;;;4161031;28;20297;-61
2023/01/24 04:45:58;;;;;;;32.23;17.50;;;-0.60;99.90;;;;;;4161054;28;20317;-62
2023/01/24 04:47:59;;;;;;;27.07;13.47;;;-0.70;99.90;;;;;;4160277;28;20759;-62
2023/01/24 04:50:00;;;;;;;28.43;14.10;;;-0.70;99.90;;;;;;4160120;28;20328;-61
2023/01/24 04:52:01;;;;;;;31.97;15.07;;;-0.80;99.90;;;;;;4160582;28;20286;-60
2023/01/24 04:54:02;;;;;;;28.77;13.97;;;-0.80;99.90;;;;;;4160018;28;20275;-61
2023/01/24 04:56:03;;;;;;;29.60;14.63;;;-0.90;99.90;;;;;;4160242;28;20263;-60
2023/01/24 04:58:05;;;;;;;30.17;15.47;;;-0.90;99.90;;;;;;4160610;28;20298;-61
2023/01/24 05:00:08;;;;;;;27.97;13.90;;;-0.90;99.90;;;;;;4160130;28;20329;-61
2023/01/24 05:02:09;;;;;;;31.30;14.23;;;-0.90;99.90;;;;;;4159429;28;20267;-61
2023/01/24 05:04:10;;;;;;;29.60;15.33;;;-0.90;99.90;;;;;;4159300;28;20633;-61
2023/01/24 05:06:11;;;;;;;25.67;13.20;;;-1.00;99.90;;;;;;4161884;28;20271;-61
2023/01/24 05:08:13;;;;;;;30.03;14.27;;;-1.00;99.90;;;;;;4160455;28;20274;-62
2023/01/24 05:10:14;;;;;;;26.50;13.73;;;-1.00;99.90;;;;;;4161419;28;20287;-61
2023/01/24 05:12:15;;;;;;;32.20;13.90;;;-1.00;99.90;;;;;;4159382;28;20825;-60
2023/01/24 05:14:16;;;;;;;22.87;12.27;;;-1.10;99.90;;;;;;4160822;28;20295;-60
2023/01/24 05:16:18;;;;;;;25.27;14.10;;;-1.10;99.90;;;;;;4159733;28;20258;-61
2023/01/24 05:18:19;;;;;;;30.10;14.63;;;-1.10;99.90;;;;;;4159874;28;20380;-60
2023/01/24 05:20:20;;;;;;;32.40;13.93;;;-1.20;99.90;;;;;;4160299;28;20274;-60
2023/01/24 05:22:21;;;;;;;30.67;15.33;;;-1.10;99.90;;;;;;4160367;28;20597;-60
2023/01/24 05:24:23;;;;;;;27.03;14.63;;;-1.10;99.90;;;;;;4159708;28;20287;-61
2023/01/24 05:26:25;;;;;;;27.73;14.73;;;-1.20;99.90;;;;;;4159830;28;20270;-68
2023/01/24 05:28:27;;;;;;;35.43;14.83;;;-1.20;99.90;;;;;;4159743;28;20773;-69
2023/01/24 05:30:28;;;;;;;33.73;15.57;;;-1.10;99.90;;;;;;4160172;28;20266;-64
2023/01/24 05:32:29;;;;;;;29.50;15.43;;;-1.10;99.90;;;;;;4160029;28;20276;-61
2023/01/24 05:34:30;;;;;;;38.77;15.37;;;-1.10;99.90;;;;;;4160231;28;20318;-60
2023/01/24 05:36:32;;;;;;;30.90;15.63;;;-1.10;99.90;;;;;;4161360;28;20305;-73
2023/01/24 05:38:33;;;;;;;27.83;14.93;;;-1.10;99.90;;;;;;4159710;28;20345;-58
2023/01/24 05:40:34;;;;;;;31.33;15.77;;;-1.20;99.90;;;;;;4159898;28;20340;-59
2023/01/24 05:42:35;;;;;;;28.17;15.67;;;-1.20;99.90;;;;;;4160025;28;20344;-60
2023/01/24 05:44:36;;;;;;;27.87;15.77;;;-1.20;99.90;;;;;;4160882;28;20345;-61
2023/01/24 05:46:39;;;;;;;34.03;16.77;;;-1.20;99.90;;;;;;4159716;28;20263;-60
2023/01/24 05:48:42;;;;;;;37.67;17.20;;;-1.20;99.90;;;;;;4160908;28;20270;-60
2023/01/24 05:50:43;;;;;;;26.77;14.47;;;-1.20;99.90;;;;;;4160743;28;20267;-60
2023/01/24 05:52:44;;;;;;;34.83;16.80;;;-1.20;99.90;;;;;;4159933;28;20828;-60
2023/01/24 05:54:45;;;;;;;31.33;16.23;;;-1.20;99.90;;;;;;4162013;28;20267;-60
2023/01/24 05:56:48;;;;;;;32.67;15.50;;;-1.20;99.90;;;;;;4162053;28;20309;-71
2023/01/24 05:58:49;;;;;;;35.00;15.13;;;-1.20;99.90;;;;;;4162612;28;20365;-66
2023/01/24 06:00:50;;;;;;;32.97;15.70;;;-1.20;99.90;;;;;;4162937;28;20321;-61
2023/01/24 06:02:52;;;;;;;34.20;16.43;;;-1.20;99.90;;;;;;4163829;28;20274;-60
2023/01/24 06:04:53;;;;;;;35.23;15.13;;;-1.20;99.90;;;;;;4162688;28;20703;-60
2023/01/24 06:06:54;;;;;;;36.73;16.13;;;-1.20;99.90;;;;;;4163905;28;20344;-60
2023/01/24 06:08:56;;;;;;;35.80;16.17;;;-1.10;99.90;;;;;;4163135;28;20255;-58
2023/01/24 06:11:12;;;;;;;36.20;17.70;;;-1.10;99.90;;;;;;4163255;28;20337;-61
2023/01/24 06:13:14;;;;;;;38.20;15.87;;;-1.00;99.90;;;;;;4161891;28;20279;-61
2023/01/24 06:15:15;;;;;;;41.00;17.80;;;-0.80;99.90;;;;;;4163214;28;20557;-63
2023/01/24 06:17:16;;;;;;;44.23;18.03;;;-0.60;99.90;;;;;;4162077;28;20824;-59
2023/01/24 06:19:17;;;;;;;44.70;16.43;;;-0.30;99.90;;;;;;4164115;28;20316;-61
2023/01/24 06:21:44;;;;;;;37.00;16.33;;;0.00;99.90;;;;;;4162854;28;20654;-60
2023/01/24 06:23:45;;;;;;;38.77;15.70;;;0.30;99.90;;;;;;4163795;28;20274;-61
2023/01/24 06:25:47;;;;;;;31.67;14.93;;;0.70;99.90;;;;;;4162019;28;20329;-61
2023/01/24 06:27:48;;;;;;;33.23;15.10;;;1.10;99.90;;;;;;4161458;28;20770;-61
2023/01/24 06:29:50;;;;;;;44.87;18.97;;;1.40;99.90;;;;;;4162400;28;20735;-67
2023/01/24 06:32:05;;;;;;;36.60;16.67;;;1.80;99.90;;;;;;4163459;28;20271;-61
2023/01/24 06:34:44;;;;;;;32.10;14.20;;;2.10;99.90;;;;;;4161985;28;20329;-66
2023/01/24 06:36:53;;;;;;;38.10;13.90;;;2.40;99.90;;;;;;4163749;28;20266;-61
2023/01/24 06:38:54;;;;;;;31.67;12.93;;;2.80;99.90;;;;;;4162150;28;20295;-66
2023/01/24 06:40:58;;;;;;;25.67;11.93;;;3.10;99.90;;;;;;4163679;28;20290;-61
2023/01/24 06:43:00;;;;;;;26.57;12.57;;;3.40;99.90;;;;;;4160875;28;20756;-61
2023/01/24 06:45:01;;;;;;;21.87;10.87;;;3.60;99.90;;;;;;4162751;28;20295;-61
2023/01/24 06:47:02;;;;;;;19.63;10.70;;;3.80;99.90;;;;;;4162181;28;20033;-60
2023/01/24 06:49:03;;;;;;;22.17;11.57;;;3.90;99.90;;;;;;4161099;28;20287;-61
2023/01/24 06:51:05;;;;;;;26.93;14.27;;;4.20;99.90;;;;;;4161943;28;20037;-69
2023/01/24 06:53:07;;;;;;;33.60;14.67;;;4.40;99.90;;;;;;4161810;28;20087;-61
2023/01/24 06:55:09;;;;;;;34.23;14.50;;;4.50;99.90;;;;;;4162989;28;20033;-61
2023/01/24 06:57:10;;;;;;;33.37;15.73;;;4.50;99.90;;;;;;4161802;28;20071;-70
2023/01/24 06:59:11;;;;;;;36.37;15.03;;;4.60;99.90;;;;;;4161691;28;20095;-62
2023/01/24 07:01:12;;;;;;;28.73;15.70;;;4.60;99.90;;;;;;4160767;28;20041;-61
2023/01/24 07:03:13;;;;;;;36.80;16.27;;;4.70;99.90;;;;;;4162374;28;20091;-61
2023/01/24 07:05:15;;;;;;;34.70;17.33;;;5.00;99.90;;;;;;4143537;28;20061;-62
2023/01/24 07:07:16;;;;;;;35.87;16.90;;;5.20;99.90;;;;;;4162376;28;20152;-61
2023/01/24 07:09:17;;;;;;;33.40;16.90;;;5.50;99.90;;;;;;4144739;28;20120;-61
2023/01/24 07:11:18;;;;;;;42.60;17.50;;;5.90;99.90;;;;;;4161449;28;20363;-61
2023/01/24 07:13:20;;;;;;;33.07;17.63;;;6.20;99.90;;;;;;4161516;28;20121;-61
2023/01/24 07:15:21;;;;;;;33.83;18.30;;;6.40;99.90;;;;;;4162544;28;20104;-63
2023/01/24 07:17:22;;;;;;;42.83;18.97;;;6.60;99.90;;;;;;4161540;28;20081;-60
2023/01/24 07:19:25;;;;;;;25.50;14.33;;;6.80;99.90;;;;;;4162363;28;20092;-61
2023/01/24 07:21:26;;;;;;;54.10;40.07;;;6.70;99.90;;;;;;4162490;28;20462;-60
2023/01/24 07:23:29;;;;;;;27.37;14.37;;;6.70;99.90;;;;;;4161897;28;20412;-60
2023/01/24 07:25:32;;;;;;;23.00;13.27;;;6.60;99.90;;;;;;4162262;28;20079;-59
2023/01/24 07:27:33;;;;;;;26.67;14.90;;;6.40;99.90;;;;;;4160290;28;20144;-63
2023/01/24 07:29:34;;;;;;;28.00;15.33;;;6.40;99.90;;;;;;4161303;28;20083;-62
2023/01/24 07:31:35;;;;;;;30.27;17.33;;;6.40;99.90;;;;;;4161547;28;20033;-61
2023/01/24 07:33:36;;;;;;;33.83;17.03;;;6.50;99.90;;;;;;4161094;28;20037;-61
2023/01/24 07:35:38;;;;;;;36.47;17.73;;;6.80;99.90;;;;;;4161112;28;20046;-63
2023/01/24 07:37:39;;;;;;;40.97;23.37;;;7.40;99.90;;;;;;4162042;28;20088;-62
2023/01/24 07:39:41;;;;;;;35.57;17.00;;;7.60;99.90;;;;;;4159657;28;20037;-63
2023/01/24 07:41:43;;;;;;;32.63;16.53;;;7.60;99.90;;;;;;4158829;28;20513;-62
2023/01/24 07:43:45;;;;;;;28.10;19.33;;;7.50;99.90;;;;;;4160493;28;20537;-61
2023/01/24 07:45:46;;;;;;;36.30;23.33;;;7.60;99.90;;;;;;4154105;28;20092;-60
2023/01/24 07:47:47;;;;;;;35.07;21.40;;;7.60;99.90;;;;;;4144537;28;20096;-63
2023/01/24 07:49:48;;;;;;;32.43;20.87;;;7.70;99.90;;;;;;4160342;28;20034;-62
2023/01/24 07:51:49;;;;;;;24.87;14.07;;;7.90;99.90;;;;;;4161710;28;20095;-60
2023/01/24 07:53:50;;;;;;;28.50;18.53;;;8.20;99.90;;;;;;4152276;28;20046;-59
2023/01/24 07:55:52;;;;;;;26.17;17.70;;;8.30;99.90;;;;;;4175270;28;20086;-62
2023/01/24 07:58:01;;;;;;;17.97;9.73;;;8.40;99.90;;;;;;4171488;28;20492;-62
2023/01/24 08:00:03;;;;;;;19.67;10.97;;;8.60;99.90;;;;;;4161439;28;20045;-61
2023/01/24 08:02:04;;;;;;;15.53;9.20;;;8.80;99.90;;;;;;4159921;28;20079;-62
2023/01/24 08:04:06;;;;;;;33.37;23.37;;;8.90;99.90;;;;;;4161303;28;20049;-62
2023/01/24 08:06:07;;;;;;;15.30;9.97;;;9.10;99.90;;;;;;4160893;28;20482;-62
2023/01/24 08:08:08;;;;;;;15.73;9.60;;;9.10;99.90;;;;;;4162375;28;20026;-61
2023/01/24 08:10:10;;;;;;;17.17;9.00;;;9.10;99.90;;;;;;4160982;28;20076;-62
2023/01/24 08:12:11;;;;;;;15.40;8.77;;;9.00;99.90;;;;;;4161410;28;20099;-71
2023/01/24 08:14:12;;;;;;;16.97;9.70;;;8.90;99.90;;;;;;4160750;28;20509;-67
2023/01/24 08:18:24;;;;;;;13.63;7.80;;;9.10;99.90;;;;;;4264533;22;20093;-63
2023/01/24 08:20:25;;;;;;;16.13;8.67;;;9.10;99.90;;;;;;4177599;28;20098;-64
2023/01/24 08:22:27;;;;;;;18.57;8.67;;;8.90;99.90;;;;;;4180085;28;20025;-63
2023/01/24 08:24:28;;;;;;;27.83;11.87;;;8.80;99.90;;;;;;4185962;28;20036;-65
2023/01/24 08:26:29;;;;;;;23.50;13.33;;;8.80;99.90;;;;;;4194614;28;20518;-62
2023/01/24 08:28:32;;;;;;;28.40;15.20;;;8.50;99.90;;;;;;4193530;28;20041;-62
2023/01/24 08:30:33;;;;;;;30.33;15.73;;;8.20;99.90;;;;;;4192641;28;20049;-64
2023/01/24 08:32:34;;;;;;;32.23;16.23;;;7.90;99.90;;;;;;4192964;28;20369;-67
2023/01/24 08:34:36;;;;;;;34.83;17.40;;;7.60;99.90;;;;;;4194293;28;20032;-60
2023/01/24 08:36:37;;;;;;;29.00;14.93;;;7.60;99.90;;;;;;4192198;28;20086;-62
2023/01/24 08:38:38;;;;;;;32.20;17.63;;;7.50;99.90;;;;;;4185746;28;20182;-60
2023/01/24 08:40:39;;;;;;;29.37;15.13;;;7.30;99.90;;;;;;4178913;28;20029;-61
2023/01/24 08:42:40;;;;;;;25.70;15.03;;;7.20;99.90;;;;;;4190477;28;20372;-69
2023/01/24 08:44:42;;;;;;;27.53;14.10;;;6.80;99.90;;;;;;4194659;28;20110;-68
2023/01/24 08:46:43;;;;;;;26.53;13.57;;;6.30;99.90;;;;;;4193037;28;20094;-67
2023/01/24 08:48:44;;;;;;;27.20;15.37;;;6.20;99.90;;;;;;4194384;28;20094;-66
2023/01/24 08:50:45;;;;;;;30.80;14.83;;;6.30;99.90;;;;;;4193789;28;20040;-66
2023/01/24 08:52:47;;;;;;;29.63;15.00;;;6.30;99.90;;;;;;4184281;28;20094;-64
2023/01/24 08:54:48;;;;;;;28.47;14.00;;;6.10;99.90;;;;;;4177774;28;20096;-64
2023/01/24 08:56:49;;;;;;;20.30;11.73;;;5.90;99.90;;;;;;4177966;28;20075;-64
2023/01/24 08:58:51;;;;;;;17.87;10.80;;;5.60;99.90;;;;;;4176802;28;20041;-62
2023/01/24 09:00:52;;;;;;;20.63;10.90;;;5.30;99.90;;;;;;4179615;28;20044;-64
2023/01/24 09:02:53;;;;;;;22.87;12.30;;;4.90;99.90;;;;;;4198925;28;20048;-61
2023/01/24 09:04:54;;;;;;;22.20;12.03;;;4.70;99.90;;;;;;4194116;28;20038;-63
2023/01/24 09:06:55;;;;;;;23.33;10.83;;;4.60;99.90;;;;;;4184280;28;20021;-62
2023/01/24 09:08:56;;;;;;;21.63;10.43;;;4.40;99.90;;;;;;4177349;28;20028;-66
2023/01/24 09:10:59;;;;;;;19.80;10.83;;;4.20;99.90;;;;;;4177345;28;20724;-64
2023/01/24 09:13:01;;;;;;;16.87;9.00;;;4.20;99.90;;;;;;4176726;28;20082;-67
2023/01/24 09:15:02;;;;;;;19.47;9.47;;;4.20;99.90;;;;;;4177753;28;20041;-63
2023/01/24 09:17:04;;;;;;;18.73;9.33;;;4.20;99.90;;;;;;4186839;28;20298;-61
2023/01/24 09:19:05;;;;;;;19.87;9.73;;;4.30;99.90;;;;;;4194018;28;20803;-62
2023/01/24 09:21:06;;;;;;;17.87;9.67;;;4.30;99.90;;;;;;4193787;28;20295;-63
2023/01/24 09:23:17;;;;;;;21.07;11.43;;;4.20;99.90;;;;;;4194325;28;20273;-63
2023/01/24 09:25:18;;;;;;;19.70;9.60;;;4.10;99.90;;;;;;4186617;28;20281;-61
2023/01/24 09:27:19;;;;;;;19.17;10.50;;;4.10;99.90;;;;;;4193620;28;20491;-62
2023/01/24 09:29:20;;;;;;;18.60;9.77;;;4.30;99.90;;;;;;4193856;28;20671;-70
2023/01/24 09:31:21;;;;;;;18.93;9.13;;;4.30;99.90;;;;;;4196934;28;20266;-63
2023/01/24 09:33:23;;;;;;;16.77;7.90;;;4.50;99.90;;;;;;4196693;28;20265;-71
2023/01/24 09:35:24;;;;;;;15.50;8.63;;;4.50;99.90;;;;;;4197638;28;20376;-69
2023/01/24 09:37:26;;;;;;;18.17;9.50;;;4.50;99.90;;;;;;4196334;28;20295;-62
2023/01/24 09:39:27;;;;;;;17.50;9.77;;;4.60;99.90;;;;;;4196263;28;20296;-62
2023/01/24 09:41:59;;;;;;;17.57;9.47;;;4.70;99.90;;;;;;4196238;28;20319;-63
2023/01/24 09:44:03;;;;;;;14.77;8.77;;;4.80;99.90;;;;;;4195389;28;20318;-64
2023/01/24 09:46:32;;;;;;;15.20;8.80;;;4.90;99.90;;;;;;4196346;28;20277;-67
2023/01/24 09:48:34;;;;;;;14.10;8.27;;;4.90;99.90;;;;;;4189509;28;20277;-63
2023/01/24 09:50:49;;;;;;;14.70;8.97;;;5.00;99.90;;;;;;4194051;28;20262;-63
2023/01/24 09:52:53;;;;;;;17.03;8.97;;;5.00;99.90;;;;;;4195717;28;20273;-61
2023/01/24 09:55:25;;;;;;;16.43;8.23;;;5.00;99.90;;;;;;4195759;28;20605;-62
2023/01/24 09:57:46;;;;;;;15.83;8.20;;;5.10;99.90;;;;;;4196885;28;20257;-63
2023/01/24 09:59:53;;;;;;;11.40;7.17;;;5.20;99.90;;;;;;4195706;28;20358;-61
2023/01/24 10:01:54;;;;;;;12.30;6.47;;;5.30;99.90;;;;;;4196592;28;20324;-63
2023/01/24 10:03:56;;;;;;;12.33;5.97;;;5.40;99.90;;;;;;4193774;28;20339;-67
2023/01/24 10:06:11;;;;;;;11.00;6.10;;;5.50;99.90;;;;;;4197065;28;20025;-63
2023/01/24 10:08:31;;;;;;;7.87;5.23;;;5.60;99.90;;;;;;4193808;28;20274;-61
2023/01/24 10:10:44;;;;;;;9.82;5.00;;;5.70;99.90;;;;;;4195635;28;20687;-63
2023/01/24 10:13:04;;;;;;;11.27;5.20;;;5.80;99.90;;;;;;4195801;28;20086;-63
2023/01/24 10:15:35;;;;;;;10.13;5.30;;;5.90;99.90;;;;;;4196831;28;20876;-62
2023/01/24 10:18:05;;;;;;;6.27;4.00;;;6.00;99.90;;;;;;4195466;28;20048;-62
2023/01/24 10:20:39;;;;;;;9.35;4.97;;;6.20;99.90;;;;;;4192153;28;20059;-63
2023/01/24 10:22:46;;;;;;;10.00;5.67;;;6.40;99.90;;;;;;4190969;28;20094;-62
2023/01/24 10:24:59;;;;;;;10.63;5.03;;;6.50;99.90;;;;;;4195958;28;20415;-62
2023/01/24 10:27:01;;;;;;;8.87;4.83;;;6.50;99.90;;;;;;4196530;28;20028;-68
2023/01/24 10:29:16;;;;;;;6.73;3.77;;;6.60;99.90;;;;;;4195956;28;20044;-63
2023/01/24 10:31:27;;;;;;;12.00;4.90;;;6.60;99.90;;;;;;4196411;28;21061;-62
2023/01/24 10:33:34;;;;;;;7.43;3.70;;;6.60;99.90;;;;;;4194412;28;20024;-66
2023/01/24 10:35:43;;;;;;;3.93;2.40;;;6.70;99.90;;;;;;4196077;28;20086;-61
2023/01/24 10:37:55;;;;;;;3.37;2.17;;;6.80;99.90;;;;;;4195778;28;20078;-62
2023/01/24 10:39:58;;;;;;;3.57;2.43;;;7.00;99.90;;;;;;4195955;28;20086;-62
2023/01/24 10:41:59;;;;;;;4.00;1.70;;;7.00;99.90;;;;;;4194664;28;20029;-65
2023/01/24 10:44:25;;;;;;;4.97;2.10;;;7.10;99.90;;;;;;4195757;28;20036;-62
2023/01/24 10:46:46;;;;;;;2.63;2.10;;;7.00;99.90;;;;;;4195523;28;20085;-62
2023/01/24 10:48:55;;;;;;;2.70;1.87;;;7.10;99.90;;;;;;4195789;28;20056;-63
2023/01/24 10:51:14;;;;;;;2.37;1.60;;;7.10;99.90;;;;;;4195316;28;20025;-62
2023/01/24 10:53:27;;;;;;;2.43;1.60;;;7.10;99.90;;;;;;4196741;28;20070;-62
2023/01/24 10:55:38;;;;;;;6.47;2.13;;;7.10;99.90;;;;;;4195136;28;20016;-63
2023/01/24 10:57:44;;;;;;;3.40;2.10;;;7.10;99.90;;;;;;4195481;28;20041;-63
2023/01/24 10:59:46;;;;;;;3.37;2.37;;;7.10;99.90;;;;;;4194502;28;20048;-62
2023/01/24 11:01:48;;;;;;;2.63;2.10;;;7.00;99.90;;;;;;4184849;28;20079;-63
2023/01/24 11:03:51;;;;;;;3.93;1.43;;;7.00;99.90;;;;;;4178292;28;20021;-68
2023/01/24 11:05:54;;;;;;;1.93;1.30;;;7.00;99.90;;;;;;4179020;28;20086;-63
2023/01/24 11:08:00;;;;;;;1.97;1.10;;;7.00;99.90;;;;;;4178114;28;20014;-63
2023/01/24 11:10:23;;;;;;;2.30;1.33;;;6.90;99.90;;;;;;4178676;28;20079;-63
2023/01/24 11:12:24;;;;;;;1.93;1.30;;;6.90;99.90;;;;;;4176594;28;20107;-63